Time;durP1;ratioP1;P1;durP2;ratioP2;P2;SDS_P1;SDS_P2;PMS_P1;PMS_P2;Temp;Humidity;BMP_temperature;BMP_pressure;BME280_temperature;BME280_humidity;BME280_pressure;Samples;Min_cycle;Max_cycle;Signal;HPM_P1;HPM_P2
2022/06/09 00:01:24;;;;;;;4.93;1.58;;;;;;;14.80;86.92;100897.41;5081507;28;20074;-81
2022/06/09 00:04:00;;;;;;;6.45;2.40;;;;;;;14.78;86.66;100899.28;5085895;28;20048;-81
2022/06/09 00:06:31;;;;;;;4.30;1.52;;;;;;;14.78;87.07;100901.94;5078668;28;20108;-81
2022/06/09 00:08:59;;;;;;;8.05;2.00;;;;;;;14.77;86.99;100911.63;5074575;28;20031;-81
2022/06/09 00:11:26;;;;;;;9.15;1.75;;;;;;;14.76;86.93;100906.44;5084275;28;20376;-81
2022/06/09 00:13:52;;;;;;;4.35;1.38;;;;;;;14.75;86.92;100907.38;5081832;28;20029;-81
2022/06/09 00:16:18;;;;;;;6.50;1.92;;;;;;;14.74;86.76;100916.22;5047011;28;20044;-81
2022/06/09 00:18:43;;;;;;;3.30;1.70;;;;;;;14.73;86.53;100904.81;5086959;28;20048;-81
2022/06/09 00:21:09;;;;;;;2.80;1.25;;;;;;;14.74;86.53;100911.81;5044333;28;20033;-81
2022/06/09 00:23:35;;;;;;;6.43;1.85;;;;;;;14.72;86.52;100910.19;5063482;28;20078;-81
2022/06/09 00:26:01;;;;;;;4.50;1.48;;;;;;;14.72;86.40;100920.75;5087318;28;20073;-81
2022/06/09 00:28:27;;;;;;;6.57;1.90;;;;;;;14.71;86.23;100924.31;5080905;28;20064;-81
2022/06/09 00:30:52;;;;;;;6.03;1.40;;;;;;;14.70;86.33;100928.75;5081624;28;20032;-81
2022/06/09 00:33:18;;;;;;;5.30;1.25;;;;;;;14.71;86.05;100927.78;5063391;28;20049;-81
2022/06/09 00:35:44;;;;;;;5.03;1.30;;;;;;;14.70;86.00;100938.44;5090133;28;20224;-81
2022/06/09 00:38:09;;;;;;;5.18;1.52;;;;;;;14.70;86.03;100941.06;5080716;28;20032;-81
2022/06/09 00:40:35;;;;;;;6.32;1.65;;;;;;;14.69;85.95;100937.56;5063275;28;20032;-81
2022/06/09 00:43:02;;;;;;;3.13;1.27;;;;;;;14.70;85.77;100935.81;5080749;28;20054;-81
2022/06/09 00:45:37;;;;;;;4.95;1.65;;;;;;;14.69;86.20;100937.56;5081282;28;20033;-81
2022/06/09 00:48:19;;;;;;;4.65;1.42;;;;;;;14.69;85.96;100939.38;5060842;28;20185;-81
2022/06/09 00:50:50;;;;;;;4.50;1.67;;;;;;;14.69;85.97;100937.56;5077968;28;20205;-81
2022/06/09 00:53:23;;;;;;;4.53;1.25;;;;;;;14.68;86.37;100948.19;5064164;28;20103;-81
2022/06/09 00:55:49;;;;;;;4.60;1.10;;;;;;;14.67;86.41;100954.41;5081487;28;20103;-81
2022/06/09 00:58:19;;;;;;;5.07;1.88;;;;;;;14.65;86.51;100954.50;5083139;28;20035;-81
2022/06/09 01:04:10;;;;;;;4.13;1.30;;;;;;;14.63;86.19;100959.00;5077356;28;20036;-81
2022/06/09 01:06:43;;;;;;;3.40;1.40;;;;;;;14.62;86.30;100957.28;5085202;28;20441;-81
2022/06/09 01:09:14;;;;;;;5.93;1.27;;;;;;;14.62;86.26;100959.94;5089495;28;20354;-81
2022/06/09 01:11:41;;;;;;;5.75;1.58;;;;;;;14.62;86.32;100959.94;5087719;28;20100;-81
2022/06/09 01:14:13;;;;;;;2.95;1.30;;;;;;;14.59;86.41;100966.25;5072576;28;20024;-81
2022/06/09 01:16:59;;;;;;;2.85;1.52;;;;;;;14.59;86.32;100962.75;5089763;28;20024;-81
2022/06/09 01:19:52;;;;;;;4.35;1.58;;;;;;;14.56;86.08;100963.72;5087627;28;20209;-81
2022/06/09 01:22:48;;;;;;;4.30;1.70;;;;;;;14.56;86.44;100962.88;5089467;28;20168;-81
2022/06/09 01:25:14;;;;;;;5.85;1.30;;;;;;;14.55;86.17;100974.34;5080910;28;20224;-81
2022/06/09 01:28:17;;;;;;;3.17;1.60;;;;;;;14.53;86.37;100974.44;5081080;28;20044;-81
2022/06/09 01:30:56;;;;;;;3.03;1.20;;;;;;;14.51;86.19;100975.47;5080999;28;20287;-81
2022/06/09 01:33:40;;;;;;;2.67;1.30;;;;;;;14.50;86.18;100986.97;5080845;28;20328;-81
2022/06/09 01:36:28;;;;;;;2.92;1.27;;;;;;;14.48;86.03;100991.44;5080632;28;20028;-81
2022/06/09 01:38:56;;;;;;;3.13;1.00;;;;;;;14.46;86.07;100983.63;5081069;28;20036;-81
2022/06/09 01:41:24;;;;;;;3.35;1.00;;;;;;;14.44;85.77;100982.84;5080145;28;20263;-81
2022/06/09 01:43:51;;;;;;;5.05;1.45;;;;;;;14.44;85.77;100982.00;5046499;28;20096;-81
2022/06/09 01:46:28;;;;;;;2.13;1.30;;;;;;;14.44;85.98;100989.91;5062921;28;20115;-81
2022/06/09 01:48:57;;;;;;;2.17;1.17;;;;;;;14.40;85.77;100982.16;5080619;28;20324;-81
2022/06/09 01:51:26;;;;;;;2.25;1.10;;;;;;;14.42;85.89;100986.50;5080708;28;20327;-81
2022/06/09 01:54:05;;;;;;;4.30;1.35;;;;;;;14.39;85.83;100993.66;5080451;28;20086;-81
2022/06/09 01:56:36;;;;;;;3.28;1.00;;;;;;;14.38;85.72;100985.81;5080397;28;20048;-81
2022/06/09 01:59:16;;;;;;;2.75;1.10;;;;;;;14.38;85.42;100991.09;5080153;28;20028;-81
2022/06/09 02:01:50;;;;;;;1.95;1.20;;;;;;;14.36;85.68;100993.81;5080616;28;20040;-80
2022/06/09 02:04:20;;;;;;;4.55;1.40;;;;;;;14.35;85.79;100988.63;5080387;28;20032;-81
2022/06/09 02:06:47;;;;;;;3.85;1.38;;;;;;;14.34;85.59;100998.31;5081008;28;20048;-81
2022/06/09 02:09:13;;;;;;;2.45;1.23;;;;;;;14.34;85.64;100995.69;5079932;28;20360;-81
2022/06/09 02:11:51;;;;;;;4.38;1.45;;;;;;;14.33;86.22;100998.38;5080441;28;20028;-81
2022/06/09 02:14:19;;;;;;;8.23;1.42;;;;;;;14.32;85.92;100991.44;5062179;28;20028;-81
2022/06/09 02:16:45;;;;;;;6.90;2.05;;;;;;;14.31;86.00;101005.53;5080114;28;20204;-81
2022/06/09 02:19:10;;;;;;;6.55;1.38;;;;;;;14.30;85.97;101007.31;5057449;28;20052;-81
2022/06/09 02:21:37;;;;;;;4.07;1.67;;;;;;;14.31;86.14;101016.91;5060006;28;20064;-81
2022/06/09 02:24:03;;;;;;;2.47;1.08;;;;;;;14.30;86.13;101012.59;5067235;28;20044;-81
2022/06/09 02:26:30;;;;;;;4.22;1.20;;;;;;;14.31;85.91;101013.44;5080073;28;20095;-81
2022/06/09 02:28:56;;;;;;;4.25;1.08;;;;;;;14.32;85.75;101013.34;5062240;28;20262;-81
2022/06/09 02:31:23;;;;;;;3.20;1.38;;;;;;;14.32;85.82;101021.25;5064116;28;20036;-79
2022/06/09 02:33:50;;;;;;;5.63;1.10;;;;;;;14.32;85.83;101017.78;5065228;28;20046;-78
2022/06/09 02:36:16;;;;;;;3.95;1.27;;;;;;;14.31;85.67;101019.53;5065906;28;20059;-78
2022/06/09 02:38:41;;;;;;;4.05;1.42;;;;;;;14.31;85.96;101027.44;5082635;28;20028;-78
2022/06/09 02:41:07;;;;;;;2.08;0.93;;;;;;;14.32;85.75;101030.97;5050109;28;20059;-78
2022/06/09 02:43:32;;;;;;;2.72;1.10;;;;;;;14.32;85.86;101036.22;5083195;28;20075;-78
2022/06/09 02:45:59;;;;;;;1.77;0.93;;;;;;;14.32;85.68;101031.78;5064871;28;20074;-78
2022/06/09 02:48:25;;;;;;;1.73;0.93;;;;;;;14.33;85.57;101035.28;5082639;28;20099;-78
2022/06/09 02:50:53;;;;;;;2.97;1.10;;;;;;;14.32;85.72;101041.50;5083307;28;20232;-78
2022/06/09 02:53:20;;;;;;;3.95;1.15;;;;;;;14.33;85.58;101048.44;5083367;28;20282;-78
2022/06/09 02:55:46;;;;;;;1.98;0.80;;;;;;;14.32;85.60;101047.59;5048557;28;20111;-78
2022/06/09 02:58:12;;;;;;;4.88;1.40;;;;;;;14.32;85.52;101057.28;5064710;28;20037;-78
2022/06/09 03:00:38;;;;;;;2.00;0.70;;;;;;;14.32;85.56;101052.03;5081779;28;20043;-78
2022/06/09 03:03:06;;;;;;;2.88;0.77;;;;;;;14.31;85.43;101052.94;5082469;28;20044;-78
2022/06/09 03:05:35;;;;;;;3.78;1.00;;;;;;;14.32;85.35;101059.94;5082063;28;20032;-78
2022/06/09 03:08:01;;;;;;;6.60;1.20;;;;;;;14.32;85.31;101058.13;5064668;28;20044;-78
2022/06/09 03:10:26;;;;;;;2.35;0.90;;;;;;;14.32;85.46;101070.47;5064826;28;20039;-78
2022/06/09 03:12:53;;;;;;;3.22;1.10;;;;;;;14.32;85.75;101067.84;5075815;28;20105;-78
2022/06/09 03:15:21;;;;;;;2.33;0.95;;;;;;;14.32;85.62;101078.38;5064490;28;20059;-78
2022/06/09 03:17:46;;;;;;;2.97;0.80;;;;;;;14.31;85.85;101074.88;5064723;28;20027;-78
2022/06/09 03:20:22;;;;;;;4.32;1.20;;;;;;;14.31;85.57;101084.56;5082566;28;20048;-78
2022/06/09 03:22:47;;;;;;;3.72;0.80;;;;;;;14.30;85.53;101078.44;5082602;28;20080;-78
2022/06/09 03:25:13;;;;;;;2.33;0.80;;;;;;;14.30;85.39;101080.25;5064726;28;20086;-78
2022/06/09 03:27:39;;;;;;;1.48;0.70;;;;;;;14.29;85.38;101081.16;5063916;28;20028;-78
2022/06/09 03:30:06;;;;;;;1.13;0.65;;;;;;;14.29;85.17;101089.91;5030927;28;20446;-78
2022/06/09 03:32:32;;;;;;;2.58;1.02;;;;;;;14.30;85.56;101096.06;5063684;28;20024;-78
2022/06/09 03:34:58;;;;;;;2.88;1.00;;;;;;;14.29;85.53;101089.06;5064120;28;20032;-78
2022/06/09 03:37:23;;;;;;;2.58;0.73;;;;;;;14.30;85.56;101096.06;5042387;28;20032;-78
2022/06/09 03:39:48;;;;;;;1.63;0.77;;;;;;;14.30;85.24;101102.16;5080661;28;20055;-78
2022/06/09 03:42:14;;;;;;;2.35;1.00;;;;;;;14.30;85.50;101106.59;5063255;28;20102;-78
2022/06/09 03:44:40;;;;;;;4.22;1.13;;;;;;;14.29;85.37;101105.72;5043012;28;20049;-78
2022/06/09 03:47:05;;;;;;;2.17;0.70;;;;;;;14.29;85.50;101121.53;5042432;28;20400;-78
2022/06/09 03:49:31;;;;;;;6.95;1.70;;;;;;;14.29;85.79;101113.63;5059818;28;20243;-78
2022/06/09 03:51:56;;;;;;;2.28;0.70;;;;;;;14.30;85.61;101127.66;5062610;28;20024;-78
2022/06/09 03:54:21;;;;;;;3.58;0.70;;;;;;;14.29;85.78;101126.78;5041961;28;20146;-78
2022/06/09 03:56:48;;;;;;;1.05;0.70;;;;;;;14.28;85.95;101125.09;5059502;28;20075;-78
2022/06/09 03:59:13;;;;;;;1.92;0.68;;;;;;;14.29;85.53;101131.22;5056398;28;20037;-78
2022/06/09 04:01:39;;;;;;;1.60;0.77;;;;;;;14.28;85.42;101135.63;5079843;28;20270;-78
2022/06/09 04:04:05;;;;;;;2.67;0.80;;;;;;;14.28;85.81;101138.28;5080233;28;20108;-78
2022/06/09 04:06:31;;;;;;;1.70;0.70;;;;;;;14.26;85.52;101137.50;5062857;28;20135;-78
2022/06/09 04:08:57;;;;;;;1.50;0.90;;;;;;;14.27;85.47;101140.97;5079698;28;20213;-78
2022/06/09 04:11:23;;;;;;;0.82;0.63;;;;;;;14.26;85.66;101148.03;5081441;28;20099;-78
2022/06/09 04:13:49;;;;;;;2.05;0.90;;;;;;;14.26;85.41;101149.81;5065064;28;20051;-78
2022/06/09 04:16:22;;;;;;;3.58;1.00;;;;;;;14.23;85.46;101150.81;5065434;28;20059;-78
2022/06/09 04:18:48;;;;;;;3.38;0.90;;;;;;;14.23;85.34;101157.88;5065353;28;20352;-78
2022/06/09 04:21:14;;;;;;;1.67;0.77;;;;;;;14.23;85.74;101149.97;5082867;28;20028;-78
2022/06/09 04:23:39;;;;;;;2.03;0.90;;;;;;;14.22;85.69;101162.28;5066991;28;20064;-78
2022/06/09 04:26:05;;;;;;;2.20;0.93;;;;;;;14.22;85.71;101167.53;5084730;28;20040;-78
2022/06/09 04:28:30;;;;;;;2.15;1.00;;;;;;;14.21;85.48;101179.03;5066472;28;20056;-78
2022/06/09 04:30:55;;;;;;;6.38;0.93;;;;;;;14.22;85.47;101178.06;5065586;28;20260;-78
2022/06/09 04:33:21;;;;;;;4.68;1.17;;;;;;;14.21;85.39;101184.28;5049865;28;20040;-78
2022/06/09 04:35:46;;;;;;;4.90;0.88;;;;;;;14.20;85.31;101186.06;5048719;28;20036;-78
2022/06/09 04:38:12;;;;;;;2.00;1.10;;;;;;;14.21;85.51;101192.19;5065474;28;20040;-78
2022/06/09 04:40:40;;;;;;;2.85;0.90;;;;;;;14.19;85.62;101189.63;5083743;28;20236;-78
2022/06/09 04:43:09;;;;;;;2.28;0.70;;;;;;;14.18;85.48;101190.56;5084713;28;20543;-78
2022/06/09 04:45:35;;;;;;;0.90;0.70;;;;;;;14.18;85.38;101198.44;5064718;28;20054;-78
2022/06/09 04:48:01;;;;;;;1.85;0.68;;;;;;;14.18;85.37;101193.19;5037080;28;20041;-78
2022/06/09 04:50:27;;;;;;;3.35;0.90;;;;;;;14.16;85.63;101199.47;5045134;28;20041;-78
2022/06/09 04:52:53;;;;;;;1.75;0.52;;;;;;;14.16;85.66;101210.84;5064561;28;20239;-78
2022/06/09 04:55:18;;;;;;;1.08;0.70;;;;;;;14.15;85.72;101213.56;5081930;28;20047;-78
2022/06/09 04:57:44;;;;;;;1.40;0.80;;;;;;;14.11;85.80;101212.84;5064441;28;20062;-78
2022/06/09 05:00:13;;;;;;;1.15;0.90;;;;;;;14.11;85.84;101226.03;5064222;28;20044;-78
2022/06/09 05:02:38;;;;;;;0.82;0.70;;;;;;;14.09;85.74;101225.25;5082727;28;20412;-78
2022/06/09 05:05:05;;;;;;;2.05;0.82;;;;;;;14.09;86.21;101232.31;5082183;28;20045;-79
2022/06/09 05:07:30;;;;;;;1.73;0.70;;;;;;;14.08;86.20;101239.38;5065380;28;20056;-79
2022/06/09 05:09:55;;;;;;;1.10;0.80;;;;;;;14.09;86.16;101251.59;5064918;28;20064;-79
2022/06/09 05:12:21;;;;;;;5.07;1.00;;;;;;;14.09;86.30;101250.75;5083931;28;20028;-78
2022/06/09 05:14:48;;;;;;;1.98;0.80;;;;;;;14.08;86.50;101255.16;5065602;28;20103;-78
2022/06/09 05:17:14;;;;;;;1.98;1.10;;;;;;;14.10;86.39;101260.34;5064432;28;20268;-78
2022/06/09 05:19:39;;;;;;;3.03;1.20;;;;;;;14.09;86.22;101269.19;5083964;28;20293;-78
2022/06/09 05:22:04;;;;;;;1.42;1.17;;;;;;;14.09;86.72;101274.44;5063248;28;20060;-78
2022/06/09 05:24:30;;;;;;;1.10;1.00;;;;;;;14.07;86.91;101271.88;5082970;28;20146;-78
2022/06/09 05:26:56;;;;;;;1.42;1.02;;;;;;;14.08;87.09;101283.25;5065337;28;20074;-78
2022/06/09 05:29:21;;;;;;;3.08;1.25;;;;;;;14.09;87.27;101280.56;5065650;28;20063;-78
2022/06/09 05:31:46;;;;;;;3.88;1.38;;;;;;;14.09;87.26;101282.34;5065393;28;20032;-78
2022/06/09 05:34:12;;;;;;;2.40;1.30;;;;;;;14.08;87.04;101291.16;5065481;28;20120;-78
2022/06/09 05:36:38;;;;;;;1.63;1.10;;;;;;;14.09;87.42;101299.00;5063838;28;20036;-78
2022/06/09 05:47:19;;;;;;;1.60;1.00;;;;;;;14.08;87.16;101310.47;5069383;28;20156;-78
2022/06/09 05:49:47;;;;;;;3.33;1.30;;;;;;;14.09;87.14;101311.31;5080545;28;20037;-78
2022/06/09 05:52:16;;;;;;;4.30;1.33;;;;;;;14.09;87.04;101309.53;5081198;28;20029;-76
2022/06/09 05:54:42;;;;;;;1.65;1.00;;;;;;;14.11;87.09;101318.22;5081374;28;20062;-76
2022/06/09 05:57:07;;;;;;;1.52;1.08;;;;;;;14.12;87.01;101314.66;5065103;28;20036;-76
2022/06/09 05:59:32;;;;;;;2.90;1.55;;;;;;;14.12;86.97;101327.81;5065142;28;20044;-76
2022/06/09 06:01:58;;;;;;;2.85;1.20;;;;;;;14.09;87.06;101330.59;5083298;28;20273;-76
2022/06/09 06:04:23;;;;;;;1.80;1.20;;;;;;;14.08;87.13;101343.84;5065578;28;20344;-76
2022/06/09 06:06:48;;;;;;;0.85;0.65;;;;;;;14.07;87.38;101343.00;5084060;28;20028;-76
2022/06/09 06:09:17;;;;;;;2.70;1.15;;;;;;;14.08;86.88;101341.19;5065804;28;20370;-76
2022/06/09 06:11:46;;;;;;;1.67;0.95;;;;;;;14.08;86.40;101346.47;5063683;28;20389;-76
2022/06/09 06:14:12;;;;;;;3.38;0.90;;;;;;;14.07;86.40;101348.25;5054160;28;20032;-76
2022/06/09 06:16:38;;;;;;;1.35;0.90;;;;;;;14.08;86.56;101346.47;5070289;28;20051;-76
2022/06/09 06:19:06;;;;;;;3.95;0.88;;;;;;;14.07;86.67;101350.03;5056918;28;20047;-76
2022/06/09 06:21:32;;;;;;;1.75;0.47;;;;;;;14.08;86.22;101362.28;5088198;28;20051;-76
2022/06/09 06:23:58;;;;;;;0.65;0.60;;;;;;;14.07;86.66;101363.22;5056220;28;20053;-76
2022/06/09 06:26:23;;;;;;;0.73;0.63;;;;;;;14.08;86.59;101373.69;5052223;28;20060;-77
2022/06/09 06:28:48;;;;;;;2.92;1.00;;;;;;;14.07;86.59;101366.69;5090988;28;20031;-77
2022/06/09 06:31:14;;;;;;;1.85;0.90;;;;;;;14.09;86.72;101377.16;5057953;28;20057;-77
2022/06/09 06:33:39;;;;;;;0.73;0.70;;;;;;;14.07;86.84;101381.66;5085106;28;20028;-77
2022/06/09 06:36:06;;;;;;;2.60;0.85;;;;;;;14.09;87.13;101383.28;5031692;28;20025;-77
2022/06/09 06:38:32;;;;;;;1.35;1.00;;;;;;;14.08;87.03;101389.47;5095566;28;20027;-77
2022/06/09 06:40:58;;;;;;;2.70;0.90;;;;;;;14.09;87.35;101382.44;5091989;28;20102;-77
2022/06/09 06:43:23;;;;;;;1.85;0.80;;;;;;;14.10;87.37;101384.13;5071224;28;20045;-77
2022/06/09 06:45:49;;;;;;;1.25;0.95;;;;;;;14.08;87.29;101389.47;5091028;28;20056;-77
2022/06/09 06:48:14;;;;;;;1.30;1.20;;;;;;;14.09;87.19;101392.97;5089120;28;20038;-77
2022/06/09 06:50:40;;;;;;;3.30;1.10;;;;;;;14.10;87.25;101397.28;5073176;28;20094;-77
2022/06/09 06:53:05;;;;;;;1.52;0.80;;;;;;;14.10;87.14;101394.66;5057028;28;20023;-77
2022/06/09 06:55:31;;;;;;;1.13;1.00;;;;;;;14.10;87.06;101397.28;5065224;28;20040;-77
2022/06/09 06:57:56;;;;;;;1.88;1.42;;;;;;;14.09;86.86;101399.06;5093382;28;20092;-77
2022/06/09 07:00:24;;;;;;;2.72;1.60;;;;;;;14.11;87.02;101406.91;5079895;28;20044;-77
2022/06/09 07:02:50;;;;;;;1.45;1.20;;;;;;;14.11;87.18;101413.03;5071216;28;20095;-77
2022/06/09 07:05:17;;;;;;;2.45;1.30;;;;;;;14.12;87.03;101413.91;5050299;28;20396;-77
2022/06/09 07:07:42;;;;;;;2.58;1.73;;;;;;;14.13;87.39;101410.31;5084557;28;20070;-77
2022/06/09 07:10:09;;;;;;;2.88;1.55;;;;;;;14.13;87.42;101415.59;5090041;28;20035;-77
2022/06/09 07:12:34;;;;;;;4.32;1.88;;;;;;;14.14;87.67;101415.53;5057969;28;20035;-77
2022/06/09 07:15:00;;;;;;;2.35;1.58;;;;;;;14.15;87.74;101425.16;5047897;28;20224;-77
2022/06/09 07:17:25;;;;;;;1.88;1.70;;;;;;;14.16;87.86;101418.94;5083299;28;20048;-77
2022/06/09 07:19:51;;;;;;;5.15;1.85;;;;;;;14.19;87.86;101423.22;5069907;28;20012;-77
2022/06/09 07:22:17;;;;;;;6.90;2.10;;;;;;;14.20;87.28;101425.75;5082823;28;20065;-77
2022/06/09 07:24:43;;;;;;;2.53;1.63;;;;;;;14.21;87.40;101430.13;5063575;28;20044;-77
2022/06/09 07:27:09;;;;;;;3.95;1.85;;;;;;;14.22;87.77;101438.88;5057999;28;20039;-77
2022/06/09 07:29:34;;;;;;;5.20;2.05;;;;;;;14.24;89.34;101437.00;5074738;28;20095;-77
2022/06/09 07:32:00;;;;;;;9.05;2.10;;;;;;;14.27;89.31;101439.50;5084606;28;20221;-77
2022/06/09 07:34:26;;;;;;;3.95;1.52;;;;;;;14.30;88.89;101449.91;5061734;28;20040;-77
2022/06/09 07:36:51;;;;;;;9.82;1.77;;;;;;;14.31;88.94;101448.97;5062434;28;20040;-77
2022/06/09 07:39:17;;;;;;;6.20;1.92;;;;;;;14.32;88.57;101458.59;5089134;28;20068;-77
2022/06/09 07:41:42;;;;;;;5.10;2.25;;;;;;;14.34;88.37;101466.44;5065340;28;20040;-77
2022/06/09 07:44:09;;;;;;;4.50;1.77;;;;;;;14.36;88.20;101469.84;5064588;28;20047;-77
2022/06/09 07:46:35;;;;;;;6.90;2.20;;;;;;;14.36;88.76;101469.84;5072555;28;20043;-77
2022/06/09 07:49:01;;;;;;;5.70;1.88;;;;;;;14.38;88.57;101468.84;5062818;28;20217;-77
2022/06/09 07:51:28;;;;;;;7.97;1.85;;;;;;;14.40;88.86;101480.16;5053981;28;20039;-77
2022/06/09 07:53:54;;;;;;;6.28;1.50;;;;;;;14.43;88.70;101478.34;5085332;28;20039;-77
2022/06/09 07:56:19;;;;;;;5.13;1.88;;;;;;;14.44;88.33;101478.25;5083732;28;20047;-77
2022/06/09 07:58:45;;;;;;;4.82;1.60;;;;;;;14.45;88.02;101489.66;5074986;28;20232;-77
2022/06/09 08:01:11;;;;;;;3.03;1.10;;;;;;;14.48;87.54;101489.50;5080863;28;20347;-77
2022/06/09 08:03:39;;;;;;;4.97;1.90;;;;;;;14.49;87.36;101492.06;5069646;28;20081;-77
2022/06/09 08:06:05;;;;;;;3.05;1.30;;;;;;;14.49;86.99;101488.59;5082863;28;20093;-77
2022/06/09 08:08:30;;;;;;;5.38;1.50;;;;;;;14.50;86.78;101499.06;5088257;28;20045;-77
2022/06/09 08:10:56;;;;;;;3.90;1.90;;;;;;;14.52;86.77;101502.47;5050975;28;20020;-77
2022/06/09 08:13:21;;;;;;;7.18;1.73;;;;;;;14.54;86.81;101508.53;5073554;28;20048;-77
2022/06/09 08:15:47;;;;;;;11.68;2.92;;;;;;;14.54;87.05;101511.16;5090002;28;20131;-77
2022/06/09 08:18:12;;;;;;;3.30;1.20;;;;;;;14.57;86.69;101515.41;5049529;28;20040;-77
2022/06/09 08:20:40;;;;;;;7.00;2.42;;;;;;;14.58;86.47;101518.03;5092925;28;20032;-77
2022/06/09 08:23:17;;;;;;;1.98;1.17;;;;;;;14.59;86.69;101525.00;5070091;28;20059;-77
2022/06/09 08:25:45;;;;;;;6.93;1.80;;;;;;;14.60;86.34;101520.59;5068354;28;20036;-77
2022/06/09 08:28:12;;;;;;;2.67;1.45;;;;;;;14.62;86.70;101528.44;5054182;28;20082;-77
2022/06/09 08:30:38;;;;;;;8.23;1.42;;;;;;;14.62;86.70;101525.78;5049748;28;20385;-77
2022/06/09 08:33:04;;;;;;;8.90;1.92;;;;;;;14.64;86.57;101530.06;5074212;28;20043;-77
2022/06/09 08:35:31;;;;;;;5.07;1.40;;;;;;;14.65;86.69;101534.41;5073407;28;20217;-77
2022/06/09 08:37:56;;;;;;;6.15;1.67;;;;;;;14.67;86.45;101529.06;5036556;28;20078;-77
2022/06/09 08:40:28;;;;;;;7.88;1.75;;;;;;;14.70;86.35;101547.41;5032928;28;20037;-77
2022/06/09 08:43:29;;;;;;;5.75;1.35;;;;;;;14.70;85.55;101550.88;5068508;28;20029;-77
2022/06/09 08:45:57;;;;;;;7.03;1.73;;;;;;;14.72;84.88;101540.25;5049140;28;20029;-77
2022/06/09 08:48:25;;;;;;;4.78;1.42;;;;;;;14.77;85.25;101548.78;5073668;28;20036;-77
2022/06/09 08:50:53;;;;;;;7.13;1.60;;;;;;;14.81;85.43;101553.00;5074685;28;20035;-77
2022/06/09 08:53:40;;;;;;;8.48;1.60;;;;;;;14.87;85.39;101558.00;5053265;28;20109;-77
2022/06/09 08:56:28;;;;;;;5.93;1.60;;;;;;;14.91;84.94;101550.78;5056887;28;20317;-77
2022/06/09 08:58:58;;;;;;;6.90;1.90;;;;;;;14.96;85.21;101559.34;5061147;28;20016;-77
2022/06/09 09:01:35;;;;;;;6.60;1.60;;;;;;;14.97;84.44;101559.28;5061799;28;20032;-77
2022/06/09 09:04:22;;;;;;;11.05;2.67;;;;;;;14.99;83.58;101548.66;5059098;28;20028;-77
2022/06/09 09:06:57;;;;;;;5.13;1.50;;;;;;;15.01;84.23;101559.09;5044803;28;20040;-77
2022/06/09 09:09:31;;;;;;;7.55;1.92;;;;;;;15.03;83.94;101554.63;5043179;28;20063;-77
2022/06/09 09:12:12;;;;;;;3.90;1.67;;;;;;;15.06;83.67;101557.09;5055174;28;20061;-77
2022/06/09 09:14:51;;;;;;;8.80;1.90;;;;;;;15.07;83.53;101559.66;5051750;28;20029;-77
2022/06/09 09:17:37;;;;;;;10.35;1.77;;;;;;;15.08;84.10;101568.44;5050149;28;20373;-77
2022/06/09 09:20:15;;;;;;;5.07;1.70;;;;;;;15.08;83.47;101568.44;5044539;28;20229;-77
2022/06/09 09:23:06;;;;;;;7.50;2.10;;;;;;;15.09;83.26;101565.72;5076144;28;20033;-76
2022/06/09 09:26:09;;;;;;;7.57;1.90;;;;;;;15.12;82.81;101581.41;5065597;28;20096;-77
2022/06/09 09:28:47;;;;;;;8.77;2.10;;;;;;;15.14;82.02;101576.91;5085998;28;20040;-77
2022/06/09 09:31:18;;;;;;;3.95;1.48;;;;;;;15.18;82.58;101584.69;5080940;28;20072;-77
2022/06/09 09:33:44;;;;;;;3.28;1.70;;;;;;;15.20;83.05;101593.38;5082793;28;20082;-77
2022/06/09 09:36:22;;;;;;;5.25;2.13;;;;;;;15.21;81.39;101593.31;5086470;28;20043;-77
2022/06/09 09:38:53;;;;;;;3.90;1.35;;;;;;;15.28;81.62;101600.00;5091551;28;20074;-77
2022/06/09 09:41:31;;;;;;;11.25;2.28;;;;;;;15.34;81.94;101590.94;5087194;28;20219;-77
2022/06/09 09:43:58;;;;;;;7.18;1.50;;;;;;;15.37;82.19;101593.41;5084999;28;20032;-77
2022/06/09 09:46:29;;;;;;;6.22;1.63;;;;;;;15.40;82.37;101597.69;5082202;28;20248;-77
2022/06/09 09:48:58;;;;;;;5.15;1.20;;;;;;;15.42;81.85;101606.41;5083333;28;20029;-77
2022/06/09 09:51:43;;;;;;;;;;;;;;;15.41;81.54;101607.31;5069465;28;20028;-77
2022/06/09 09:54:19;;;;;;;5.38;1.58;;;;;;;15.44;80.62;101617.72;5086862;28;19917;-77
2022/06/09 09:56:45;;;;;;;6.43;1.65;;;;;;;15.43;81.24;101619.53;5081576;28;20040;-77
2022/06/09 09:59:25;;;;;;;8.90;1.70;;;;;;;15.43;80.47;101624.81;5048800;28;20036;-77
2022/06/09 10:10:27;;;;;;;11.23;1.60;;;;;;;15.57;81.17;101636.47;5085215;28;20269;-77
2022/06/09 10:12:55;;;;;;;10.40;2.03;;;;;;;15.58;81.37;101635.53;5084591;28;20028;-76
2022/06/09 10:15:22;;;;;;;2.67;1.50;;;;;;;15.61;81.64;101635.38;5079760;28;20038;-76
2022/06/09 10:18:21;;;;;;;7.78;2.22;;;;;;;15.63;80.99;101650.22;5063159;28;20285;-76
2022/06/09 10:21:07;;;;;;;6.63;1.83;;;;;;;15.68;80.23;101649.97;5085159;28;20399;-76
2022/06/09 10:23:42;;;;;;;5.72;1.48;;;;;;;15.69;80.36;101660.47;5063309;28;20078;-77
2022/06/09 10:26:14;;;;;;;6.65;1.77;;;;;;;15.70;79.29;101656.91;5065330;28;20036;-77
2022/06/09 10:28:39;;;;;;;3.70;1.65;;;;;;;15.71;79.18;101652.47;5085774;28;20308;-77
2022/06/09 10:31:11;;;;;;;4.22;1.35;;;;;;;15.72;80.27;101655.06;5063797;28;20024;-76
2022/06/09 10:33:39;;;;;;;5.65;1.77;;;;;;;15.74;80.79;101660.28;5062720;28;20029;-77
2022/06/09 10:36:37;;;;;;;5.72;1.95;;;;;;;15.75;81.40;101667.28;5080179;28;20036;-77
2022/06/09 10:39:13;;;;;;;7.03;1.83;;;;;;;15.76;81.33;101666.34;5085822;28;20047;-77
2022/06/09 10:41:47;;;;;;;4.03;1.42;;;;;;;15.81;81.05;101674.03;5086457;28;20036;-77
2022/06/09 10:44:30;;;;;;;8.63;2.28;;;;;;;15.86;80.85;101672.03;5079772;28;20135;-77
2022/06/09 10:56:45;;;;;;;6.50;1.45;;;;;;;15.97;79.87;101693.50;5080934;28;20141;-77
2022/06/09 10:59:16;;;;;;;4.55;2.10;;;;;;;15.98;79.85;101681.97;5064664;28;20362;-77
2022/06/09 11:01:42;;;;;;;3.75;1.63;;;;;;;16.01;79.43;101681.84;5083515;28;20048;-77
2022/06/09 11:04:13;;;;;;;7.82;2.00;;;;;;;16.05;78.15;101690.47;5051410;28;20224;-76
2022/06/09 11:07:13;;;;;;;11.90;2.30;;;;;;;16.09;78.69;101690.22;5067585;28;20013;-77
2022/06/09 11:09:56;;;;;;;9.70;2.63;;;;;;;16.13;76.89;101693.56;5066224;28;20028;-77
2022/06/09 11:12:26;;;;;;;6.60;1.88;;;;;;;16.17;77.42;101695.16;5081134;28;20024;-77
2022/06/09 11:15:08;;;;;;;6.43;1.90;;;;;;;16.20;79.07;101700.25;5070574;28;20031;-77
2022/06/09 11:18:02;;;;;;;9.27;1.67;;;;;;;16.24;78.44;101703.59;5064015;28;20052;-77
2022/06/09 11:20:56;;;;;;;7.68;2.10;;;;;;;16.28;77.68;101699.84;5033703;28;20129;-76
2022/06/09 11:23:59;;;;;;;8.00;2.30;;;;;;;16.35;78.74;101701.25;5074761;28;20067;-76
2022/06/09 11:26:30;;;;;;;11.48;2.65;;;;;;;16.37;78.60;101701.19;5068078;28;20024;-77
2022/06/09 11:29:08;;;;;;;10.93;2.22;;;;;;;16.41;79.06;101698.31;5089023;28;20024;-76
2022/06/09 11:32:01;;;;;;;8.90;2.42;;;;;;;16.48;77.66;101712.03;5083351;28;20048;-77
2022/06/09 11:34:32;;;;;;;6.93;2.22;;;;;;;16.48;78.61;101706.75;5071713;28;20436;-76
2022/06/09 11:37:24;;;;;;;13.25;2.70;;;;;;;16.49;78.02;101700.56;5088855;28;20099;-76
2022/06/09 11:40:02;;;;;;;9.15;2.10;;;;;;;16.54;79.27;101708.25;5076780;28;20898;-76
2022/06/09 11:42:43;;;;;;;6.95;2.30;;;;;;;16.56;79.30;101709.88;5083175;28;20036;-77
2022/06/09 11:45:32;;;;;;;11.38;2.80;;;;;;;16.59;79.46;101719.44;5080956;28;20024;-76
2022/06/09 11:48:01;;;;;;;9.23;2.30;;;;;;;16.62;77.57;101708.69;5085653;28;20036;-76
2022/06/09 11:50:35;;;;;;;9.05;2.38;;;;;;;16.64;78.06;101718.25;5089325;28;20070;-76
2022/06/09 11:53:01;;;;;;;5.85;1.77;;;;;;;16.66;77.65;101710.25;5063661;28;20028;-76
2022/06/09 11:58:41;;;;;;;9.02;1.80;;;;;;;16.63;75.17;101711.28;5087463;28;20059;-77
2022/06/09 12:01:25;;;;;;;6.43;2.00;;;;;;;16.65;76.87;101712.03;5065852;28;20036;-77
2022/06/09 12:04:26;;;;;;;12.85;3.40;;;;;;;16.65;76.91;101714.69;5068034;28;20096;-77
2022/06/09 12:07:19;;;;;;;10.20;2.15;;;;;;;16.66;75.80;101705.81;5083603;28;20243;-76
2022/06/09 12:10:00;;;;;;;9.27;2.25;;;;;;;16.70;75.98;101711.81;5083903;28;20044;-77
2022/06/09 12:12:39;;;;;;;4.32;1.65;;;;;;;16.74;77.89;101710.69;5068573;28;20040;-77